BHS3262 MYGF-MYNN
Flight info
| Callsign | BHS3262 |
|---|---|
| Flight time | 0h 30m |
| Altitude | 11000 |
| Route | ZFP BR63V ZQA |
| Aircraft | AT76/M-SDFGIRY/S |
Departure
| Time | 2026-04-23 00:16 |
|---|---|
| Airport | Grand Bahama International Airport (MYGF) |
Arrival
| Time | 2026-04-23 00:47 |
|---|---|
| Airport | Lynden Pindling International Airport (MYNN) |
| Time | Latitude | Longitude | Altitude | Speed | Heading |
|---|---|---|---|---|---|
| 2026-04-23 00:09 | 26.54867 | -78.69634 | 21 ft | 0 kts | 262° |
| 2026-04-23 00:13 | 26.54879 | -78.69646 | 21 ft | 8 kts | 321° |
| 2026-04-23 00:13 | 26.54906 | -78.69759 | 21 ft | 21 kts | 274° |
| 2026-04-23 00:13 | 26.54913 | -78.69929 | 21 ft | 24 kts | 273° |
| 2026-04-23 00:13 | 26.54919 | -78.70099 | 21 ft | 20 kts | 269° |
| 2026-04-23 00:14 | 26.54918 | -78.70215 | 22 ft | 11 kts | 283° |
| 2026-04-23 00:14 | 26.54958 | -78.70287 | 21 ft | 15 kts | 290° |
| 2026-04-23 00:14 | 26.54968 | -78.70501 | 21 ft | 35 kts | 272° |
| 2026-04-23 00:14 | 26.54974 | -78.70733 | 21 ft | 26 kts | 271° |
| 2026-04-23 00:15 | 26.54980 | -78.70920 | 20 ft | 22 kts | 272° |
| 2026-04-23 00:15 | 26.55016 | -78.71010 | 20 ft | 9 kts | 357° |
| 2026-04-23 00:15 | 26.55083 | -78.71007 | 22 ft | 11 kts | 3° |
| 2026-04-23 00:15 | 26.55149 | -78.70993 | 21 ft | 17 kts | 50° |
| 2026-04-23 00:16 | 26.55314 | -78.70660 | 24 ft | 79 kts | 60° |
| 2026-04-23 00:16 | 26.55671 | -78.69950 | 42 ft | 124 kts | 63° |
| 2026-04-23 00:16 | 26.56099 | -78.69084 | 479 ft | 129 kts | 60° |
| 2026-04-23 00:16 | 26.56598 | -78.68256 | 1041 ft | 127 kts | 53° |
| 2026-04-23 00:17 | 26.57009 | -78.67411 | 1363 ft | 135 kts | 85° |
| 2026-04-23 00:17 | 26.56554 | -78.66409 | 1365 ft | 165 kts | 138° |
| 2026-04-23 00:17 | 26.55602 | -78.65607 | 1614 ft | 174 kts | 140° |
| 2026-04-23 00:17 | 26.54628 | -78.64796 | 1975 ft | 178 kts | 141° |
| 2026-04-23 00:18 | 26.53594 | -78.63963 | 2243 ft | 185 kts | 141° |
| 2026-04-23 00:18 | 26.52541 | -78.63132 | 2604 ft | 185 kts | 141° |
| 2026-04-23 00:18 | 26.51480 | -78.62288 | 2855 ft | 190 kts | 140° |
| 2026-04-23 00:18 | 26.50401 | -78.61424 | 3168 ft | 191 kts | 140° |
| 2026-04-23 00:19 | 26.49319 | -78.60555 | 3503 ft | 192 kts | 140° |
| 2026-04-23 00:19 | 26.48230 | -78.59679 | 3812 ft | 193 kts | 141° |
| 2026-04-23 00:19 | 26.47138 | -78.58803 | 4133 ft | 194 kts | 141° |
| 2026-04-23 00:19 | 26.46041 | -78.57924 | 4443 ft | 195 kts | 141° |
| 2026-04-23 00:20 | 26.44940 | -78.57039 | 4756 ft | 196 kts | 141° |
| 2026-04-23 00:20 | 26.43830 | -78.56151 | 5065 ft | 197 kts | 141° |
| 2026-04-23 00:20 | 26.42717 | -78.55258 | 5378 ft | 198 kts | 141° |
| 2026-04-23 00:20 | 26.41596 | -78.54358 | 5684 ft | 199 kts | 141° |
| 2026-04-23 00:21 | 26.40470 | -78.53456 | 5979 ft | 200 kts | 142° |
| 2026-04-23 00:21 | 26.39351 | -78.52563 | 6268 ft | 201 kts | 142° |
| 2026-04-23 00:21 | 26.38213 | -78.51650 | 6551 ft | 202 kts | 142° |
| 2026-04-23 00:21 | 26.37070 | -78.50735 | 6841 ft | 203 kts | 142° |
| 2026-04-23 00:22 | 26.35921 | -78.49815 | 7111 ft | 204 kts | 142° |
| 2026-04-23 00:22 | 26.34761 | -78.48889 | 7382 ft | 205 kts | 142° |
| 2026-04-23 00:22 | 26.33602 | -78.47959 | 7646 ft | 206 kts | 142° |
| 2026-04-23 00:22 | 26.32429 | -78.47025 | 7906 ft | 207 kts | 142° |
| 2026-04-23 00:23 | 26.31257 | -78.46086 | 8152 ft | 208 kts | 142° |
| 2026-04-23 00:23 | 26.30076 | -78.45143 | 8402 ft | 209 kts | 142° |
| 2026-04-23 00:23 | 26.28893 | -78.44198 | 8642 ft | 210 kts | 142° |
| 2026-04-23 00:23 | 26.27697 | -78.43241 | 8872 ft | 211 kts | 143° |
| 2026-04-23 00:24 | 26.26904 | -78.42610 | 9026 ft | 212 kts | 143° |
| 2026-04-23 00:24 | 26.25314 | -78.41338 | 9312 ft | 213 kts | 143° |
| 2026-04-23 00:24 | 26.24101 | -78.40371 | 9526 ft | 214 kts | 143° |
| 2026-04-23 00:24 | 26.22886 | -78.39400 | 9746 ft | 215 kts | 143° |
| 2026-04-23 00:25 | 26.21662 | -78.38425 | 9957 ft | 217 kts | 143° |
| 2026-04-23 00:25 | 26.20846 | -78.37775 | 10095 ft | 218 kts | 143° |
| 2026-04-23 00:25 | 26.19615 | -78.36790 | 10301 ft | 218 kts | 143° |
| 2026-04-23 00:25 | 26.18373 | -78.35803 | 10507 ft | 220 kts | 144° |
| 2026-04-23 00:26 | 26.17129 | -78.34812 | 10702 ft | 221 kts | 144° |
| 2026-04-23 00:26 | 26.15876 | -78.33813 | 10863 ft | 223 kts | 144° |
| 2026-04-23 00:26 | 26.14595 | -78.32795 | 10933 ft | 229 kts | 144° |
| 2026-04-23 00:26 | 26.13281 | -78.31748 | 10970 ft | 236 kts | 144° |
| 2026-04-23 00:27 | 26.11933 | -78.30673 | 10987 ft | 241 kts | 144° |
| 2026-04-23 00:27 | 26.10553 | -78.29573 | 10991 ft | 246 kts | 144° |
| 2026-04-23 00:27 | 26.09148 | -78.28458 | 10998 ft | 250 kts | 144° |
| 2026-04-23 00:27 | 26.07726 | -78.27326 | 10999 ft | 253 kts | 144° |
| 2026-04-23 00:28 | 26.06286 | -78.26182 | 10999 ft | 255 kts | 144° |
| 2026-04-23 00:28 | 26.04843 | -78.25066 | 10999 ft | 257 kts | 145° |
| 2026-04-23 00:28 | 26.03348 | -78.23920 | 10999 ft | 258 kts | 145° |
| 2026-04-23 00:28 | 26.01891 | -78.22804 | 10999 ft | 259 kts | 145° |
| 2026-04-23 00:29 | 26.00400 | -78.21664 | 10999 ft | 260 kts | 145° |
| 2026-04-23 00:29 | 25.98907 | -78.20522 | 10999 ft | 260 kts | 146° |
| 2026-04-23 00:29 | 25.97410 | -78.19379 | 10999 ft | 260 kts | 145° |
| 2026-04-23 00:29 | 25.95919 | -78.18239 | 10999 ft | 261 kts | 145° |
| 2026-04-23 00:30 | 25.94425 | -78.17100 | 10999 ft | 261 kts | 145° |
| 2026-04-23 00:30 | 25.92929 | -78.15956 | 10998 ft | 261 kts | 145° |
| 2026-04-23 00:30 | 25.91429 | -78.14812 | 10994 ft | 261 kts | 145° |
| 2026-04-23 00:30 | 25.89929 | -78.13666 | 10990 ft | 262 kts | 145° |
| 2026-04-23 00:31 | 25.88430 | -78.12522 | 10992 ft | 262 kts | 145° |
| 2026-04-23 00:31 | 25.86947 | -78.11392 | 10992 ft | 262 kts | 145° |
| 2026-04-23 00:31 | 25.85444 | -78.10245 | 10992 ft | 262 kts | 145° |
| 2026-04-23 00:31 | 25.83940 | -78.09101 | 10992 ft | 262 kts | 145° |
| 2026-04-23 00:32 | 25.82441 | -78.07958 | 10992 ft | 262 kts | 145° |
| 2026-04-23 00:32 | 25.80934 | -78.06813 | 10992 ft | 261 kts | 145° |
| 2026-04-23 00:32 | 25.79437 | -78.05674 | 10992 ft | 261 kts | 145° |
| 2026-04-23 00:32 | 25.77936 | -78.04530 | 10992 ft | 261 kts | 145° |
| 2026-04-23 00:33 | 25.76438 | -78.03390 | 10992 ft | 261 kts | 146° |
| 2026-04-23 00:33 | 25.74937 | -78.02250 | 10992 ft | 261 kts | 145° |
| 2026-04-23 00:33 | 25.73440 | -78.01109 | 10992 ft | 261 kts | 145° |
| 2026-04-23 00:33 | 25.71941 | -77.99973 | 10992 ft | 261 kts | 145° |
| 2026-04-23 00:34 | 25.70440 | -77.98831 | 10992 ft | 261 kts | 145° |
| 2026-04-23 00:34 | 25.68941 | -77.97691 | 10989 ft | 261 kts | 146° |
| 2026-04-23 00:34 | 25.67438 | -77.96550 | 10985 ft | 261 kts | 145° |
| 2026-04-23 00:34 | 25.65955 | -77.95427 | 10992 ft | 262 kts | 145° |
| 2026-04-23 00:35 | 25.64454 | -77.94285 | 10992 ft | 262 kts | 146° |
| 2026-04-23 00:35 | 25.62946 | -77.93142 | 10992 ft | 262 kts | 145° |
| 2026-04-23 00:35 | 25.61440 | -77.91999 | 10992 ft | 262 kts | 146° |
| 2026-04-23 00:35 | 25.59935 | -77.90859 | 10989 ft | 262 kts | 146° |
| 2026-04-23 00:36 | 25.58428 | -77.89717 | 10992 ft | 262 kts | 146° |
| 2026-04-23 00:36 | 25.56924 | -77.88577 | 10986 ft | 262 kts | 146° |
| 2026-04-23 00:36 | 25.55421 | -77.87438 | 10988 ft | 262 kts | 146° |
| 2026-04-23 00:36 | 25.53916 | -77.86297 | 10992 ft | 262 kts | 146° |
| 2026-04-23 00:37 | 25.52411 | -77.85160 | 10992 ft | 262 kts | 146° |
| 2026-04-23 00:37 | 25.50904 | -77.84018 | 10878 ft | 266 kts | 146° |
| 2026-04-23 00:37 | 25.49331 | -77.82830 | 10513 ft | 279 kts | 146° |
| 2026-04-23 00:37 | 25.47707 | -77.81606 | 10137 ft | 287 kts | 145° |
| 2026-04-23 00:38 | 25.46065 | -77.80370 | 9756 ft | 272 kts | 145° |
| 2026-04-23 00:38 | 25.44570 | -77.79271 | 9406 ft | 249 kts | 145° |
| 2026-04-23 00:38 | 25.43136 | -77.78210 | 9073 ft | 247 kts | 144° |
| 2026-04-23 00:38 | 25.41710 | -77.77143 | 8743 ft | 246 kts | 144° |
| 2026-04-23 00:39 | 25.40317 | -77.76091 | 8419 ft | 244 kts | 144° |
| 2026-04-23 00:39 | 25.38919 | -77.75034 | 8095 ft | 242 kts | 144° |
| 2026-04-23 00:39 | 25.37529 | -77.73984 | 7766 ft | 241 kts | 143° |
| 2026-04-23 00:39 | 25.36146 | -77.72941 | 7452 ft | 240 kts | 143° |
| 2026-04-23 00:40 | 25.34771 | -77.71907 | 7133 ft | 238 kts | 143° |
| 2026-04-23 00:40 | 25.33404 | -77.70874 | 6816 ft | 237 kts | 143° |
| 2026-04-23 00:40 | 25.32039 | -77.69846 | 6500 ft | 236 kts | 143° |
| 2026-04-23 00:40 | 25.30689 | -77.68824 | 6186 ft | 234 kts | 143° |
| 2026-04-23 00:41 | 25.29346 | -77.67815 | 5875 ft | 233 kts | 143° |
| 2026-04-23 00:41 | 25.28014 | -77.66809 | 5565 ft | 231 kts | 143° |
| 2026-04-23 00:41 | 25.26701 | -77.65822 | 5261 ft | 231 kts | 143° |
| 2026-04-23 00:41 | 25.25374 | -77.64824 | 4953 ft | 230 kts | 143° |
| 2026-04-23 00:42 | 25.24038 | -77.63817 | 4637 ft | 235 kts | 142° |
| 2026-04-23 00:42 | 25.22666 | -77.62786 | 4324 ft | 240 kts | 142° |
| 2026-04-23 00:42 | 25.21282 | -77.61745 | 4005 ft | 242 kts | 142° |
| 2026-04-23 00:42 | 25.19882 | -77.60692 | 3680 ft | 244 kts | 142° |
| 2026-04-23 00:43 | 25.18475 | -77.59633 | 3358 ft | 245 kts | 142° |
| 2026-04-23 00:43 | 25.17061 | -77.58573 | 3032 ft | 246 kts | 142° |
| 2026-04-23 00:43 | 25.15642 | -77.57508 | 2696 ft | 246 kts | 142° |
| 2026-04-23 00:43 | 25.14232 | -77.56435 | 2368 ft | 244 kts | 142° |
| 2026-04-23 00:44 | 25.12924 | -77.55445 | 2061 ft | 213 kts | 143° |
| 2026-04-23 00:44 | 25.11769 | -77.54576 | 1796 ft | 190 kts | 143° |
| 2026-04-23 00:44 | 25.10751 | -77.53806 | 1651 ft | 168 kts | 142° |
| 2026-04-23 00:44 | 25.09921 | -77.53003 | 1421 ft | 154 kts | 133° |
| 2026-04-23 00:45 | 25.09196 | -77.52160 | 1209 ft | 149 kts | 131° |
| 2026-04-23 00:45 | 25.08519 | -77.51351 | 1016 ft | 133 kts | 131° |
| 2026-04-23 00:45 | 25.07940 | -77.50664 | 838 ft | 113 kts | 131° |
| 2026-04-23 00:45 | 25.07409 | -77.50084 | 652 ft | 104 kts | 133° |
| 2026-04-23 00:46 | 25.06888 | -77.49491 | 508 ft | 111 kts | 131° |
| 2026-04-23 00:46 | 25.06331 | -77.48871 | 393 ft | 113 kts | 133° |
| 2026-04-23 00:46 | 25.05795 | -77.48270 | 236 ft | 108 kts | 131° |
| 2026-04-23 00:46 | 25.05262 | -77.47666 | 87 ft | 110 kts | 133° |
| 2026-04-23 00:47 | 25.04747 | -77.47087 | 18 ft | 97 kts | 133° |
| 2026-04-23 00:47 | 25.04430 | -77.46734 | 18 ft | 41 kts | 135° |
| 2026-04-23 00:47 | 25.04265 | -77.46553 | 16 ft | 28 kts | 133° |
| 2026-04-23 00:47 | 25.04165 | -77.46424 | 15 ft | 18 kts | 114° |
| 2026-04-23 00:48 | 25.04127 | -77.46313 | 15 ft | 13 kts | 111° |
| 2026-04-23 00:48 | 25.04099 | -77.46229 | 14 ft | 11 kts | 108° |
| 2026-04-23 00:48 | 25.04119 | -77.46161 | 16 ft | 9 kts | 26° |
| 2026-04-23 00:48 | 25.04175 | -77.46193 | 13 ft | 14 kts | 315° |
| 2026-04-23 00:49 | 25.04286 | -77.46318 | 13 ft | 23 kts | 315° |
| 2026-04-23 00:49 | 25.04392 | -77.46436 | 14 ft | 20 kts | 315° |
| 2026-04-23 00:49 | 25.04487 | -77.46541 | 14 ft | 18 kts | 315° |
| 2026-04-23 00:49 | 25.04572 | -77.46636 | 14 ft | 17 kts | 315° |
| 2026-04-23 00:50 | 25.04656 | -77.46727 | 14 ft | 16 kts | 317° |
| 2026-04-23 00:50 | 25.04744 | -77.46701 | 14 ft | 14 kts | 46° |
| 2026-04-23 00:50 | 25.04778 | -77.46632 | 13 ft | 8 kts | 93° |
| 2026-04-23 00:50 | 25.04753 | -77.46596 | 13 ft | 4 kts | 172° |
| 2026-04-23 00:51 | 25.04743 | -77.46597 | 13 ft | 0 kts | 181° |